createdAt,value
2018-08-30T00:01:12.594Z,98408.37
2018-08-30T00:03:40.994Z,98397.67
2018-08-30T00:06:09.475Z,98391.22
2018-08-30T00:08:37.827Z,98386.13
2018-08-30T00:11:06.176Z,98390.09
2018-08-30T00:13:34.502Z,98395.05
2018-08-30T00:16:02.824Z,98385.72
2018-08-30T00:18:31.322Z,98390.77
2018-08-30T00:20:59.631Z,98388.42
2018-08-30T00:23:28.007Z,98379.53
2018-08-30T00:25:56.372Z,98383.17
2018-08-30T00:28:24.744Z,98388.00
2018-08-30T00:30:53.093Z,98396.42
2018-08-30T00:33:21.476Z,98388.41
2018-08-30T00:35:49.785Z,98394.47
2018-08-30T00:38:18.165Z,98387.59
2018-08-30T00:40:46.467Z,98401.00
2018-08-30T00:43:14.876Z,98405.47
2018-08-30T00:45:43.190Z,98399.25
2018-08-30T00:48:11.618Z,98401.96
2018-08-30T00:50:40.054Z,98398.48
2018-08-30T00:53:08.438Z,98395.80
2018-08-30T00:55:36.831Z,98396.74
2018-08-30T00:58:05.289Z,98399.17
2018-08-30T01:00:33.631Z,98407.05
2018-08-30T01:03:01.985Z,98411.02
2018-08-30T01:05:30.319Z,98411.28
2018-08-30T01:07:58.720Z,98417.41
2018-08-30T01:10:27.100Z,98418.08
2018-08-30T01:12:56.488Z,98417.15
2018-08-30T01:15:26.938Z,98422.77
2018-08-30T01:17:55.874Z,98423.56
2018-08-30T01:20:24.304Z,98427.42
2018-08-30T01:22:52.718Z,98425.69
2018-08-30T01:25:21.286Z,98435.61
2018-08-30T01:27:49.684Z,98434.48
2018-08-30T01:30:18.506Z,98438.54
2018-08-30T01:32:46.929Z,98446.55
2018-08-30T01:35:15.244Z,98441.94
2018-08-30T01:37:43.591Z,98438.45
2018-08-30T01:40:11.996Z,98442.45
2018-08-30T01:42:40.361Z,98446.87
2018-08-30T01:45:08.815Z,98452.08
2018-08-30T01:47:37.192Z,98444.30
2018-08-30T01:50:05.596Z,98453.39
2018-08-30T01:52:33.928Z,98448.82
2018-08-30T01:55:02.257Z,98445.95
2018-08-30T01:57:30.680Z,98457.70
2018-08-30T01:59:58.992Z,98455.12
2018-08-30T02:02:27.368Z,98457.00
2018-08-30T02:04:55.710Z,98467.88
2018-08-30T02:07:24.055Z,98464.64
2018-08-30T02:09:52.414Z,98472.16
2018-08-30T02:12:20.726Z,98471.71
2018-08-30T02:14:50.041Z,98469.06
2018-08-30T02:17:18.343Z,98463.98
2018-08-30T02:19:46.711Z,98474.78
2018-08-30T02:22:15.056Z,98474.78
2018-08-30T02:24:43.559Z,98470.57
2018-08-30T02:27:12.013Z,98472.36
2018-08-30T02:29:40.344Z,98478.14
2018-08-30T02:32:08.642Z,98474.59
2018-08-30T02:34:36.967Z,98469.72
2018-08-30T02:37:05.371Z,98467.26
2018-08-30T02:39:33.767Z,98470.99
2018-08-30T02:42:02.123Z,98468.68
2018-08-30T02:44:30.505Z,98472.81
2018-08-30T02:46:58.910Z,98477.63
2018-08-30T02:49:27.279Z,98472.54
2018-08-30T02:51:55.615Z,98472.42
2018-08-30T02:54:23.988Z,98470.16
2018-08-30T02:56:52.327Z,98469.48
2018-08-30T02:59:20.693Z,98479.34
2018-08-30T03:01:49.079Z,98474.20
2018-08-30T03:04:17.492Z,98473.38
2018-08-30T03:06:45.890Z,98472.22
2018-08-30T03:09:14.459Z,98472.66
2018-08-30T03:11:42.908Z,98475.14
2018-08-30T03:14:11.226Z,98473.00
2018-08-30T03:16:39.518Z,98472.80
2018-08-30T03:19:07.868Z,98475.63
2018-08-30T03:21:36.166Z,98469.86
2018-08-30T03:24:04.446Z,98473.84
2018-08-30T03:26:32.752Z,98468.05
2018-08-30T03:29:01.035Z,98471.19
2018-08-30T03:31:29.375Z,98468.36
2018-08-30T03:33:57.663Z,98466.57
2018-08-30T03:36:25.985Z,98468.25
2018-08-30T03:38:54.280Z,98475.05
2018-08-30T03:41:22.569Z,98478.00
2018-08-30T03:43:50.909Z,98475.62
2018-08-30T03:46:19.219Z,98475.88
2018-08-30T03:48:47.518Z,98476.27
2018-08-30T03:51:15.903Z,98483.72
2018-08-30T03:53:44.268Z,98480.44
2018-08-30T03:56:12.599Z,98484.03
2018-08-30T03:58:40.905Z,98480.95
2018-08-30T04:01:09.183Z,98483.89
2018-08-30T04:03:37.476Z,98488.38
2018-08-30T04:06:05.781Z,98491.31
2018-08-30T04:08:34.079Z,98490.05
2018-08-30T04:11:02.354Z,98496.92
2018-08-30T04:13:30.718Z,98506.48
2018-08-30T04:15:58.946Z,98510.16
2018-08-30T04:18:27.318Z,98515.08
2018-08-30T04:20:55.696Z,98511.14
2018-08-30T04:23:24.066Z,98515.19
2018-08-30T04:25:52.425Z,98521.14
2018-08-30T04:28:20.713Z,98524.20
2018-08-30T04:30:49.005Z,98533.67
2018-08-30T04:33:17.297Z,98530.84
2018-08-30T04:35:45.721Z,98532.38
2018-08-30T04:38:14.094Z,98534.00
2018-08-30T04:40:42.427Z,98543.71
2018-08-30T04:43:10.705Z,98551.42
2018-08-30T04:45:39.038Z,98549.94
2018-08-30T04:48:07.340Z,98557.50
2018-08-30T04:50:35.692Z,98565.39
2018-08-30T04:53:03.986Z,98574.78
2018-08-30T04:55:32.298Z,98577.28
2018-08-30T04:58:00.595Z,98590.34
2018-08-30T05:00:28.909Z,98585.40
2018-08-30T05:02:57.201Z,98601.95
2018-08-30T05:05:26.222Z,98595.22
2018-08-30T05:07:54.523Z,98601.95
2018-08-30T05:10:22.965Z,98604.08
2018-08-30T05:12:51.399Z,98611.17
2018-08-30T05:15:19.763Z,98623.66
2018-08-30T05:17:48.157Z,98621.61
2018-08-30T05:20:16.574Z,98624.27
2018-08-30T05:22:44.894Z,98635.06
2018-08-30T05:25:14.706Z,98639.78
2018-08-30T05:27:43.225Z,98641.68
2018-08-30T05:30:18.218Z,98642.86
2018-08-30T05:33:01.270Z,98647.22
2018-08-30T05:35:43.568Z,98643.70
2018-08-30T05:38:12.956Z,98642.42
2018-08-30T05:40:41.748Z,98650.83
2018-08-30T05:43:10.177Z,98655.25
2018-08-30T05:45:38.478Z,98656.97
2018-08-30T05:48:06.774Z,98660.50
2018-08-30T05:50:35.074Z,98661.36
2018-08-30T05:53:04.132Z,98664.81
2018-08-30T05:55:32.860Z,98665.40
2018-08-30T05:58:01.167Z,98674.45
2018-08-30T06:00:29.528Z,98668.09
2018-08-30T06:02:57.823Z,98673.13
2018-08-30T06:05:26.171Z,98676.98
2018-08-30T06:07:54.490Z,98681.87
2018-08-30T06:10:22.778Z,98681.20
2018-08-30T06:12:51.082Z,98683.91
2018-08-30T06:15:19.378Z,98683.89
2018-08-30T06:17:47.718Z,98689.94
2018-08-30T06:20:16.271Z,98685.58
2018-08-30T06:22:44.635Z,98685.58
2018-08-30T06:25:12.905Z,98685.91
2018-08-30T06:27:41.210Z,98690.59
2018-08-30T06:30:09.722Z,98687.08
2018-08-30T06:32:38.136Z,98698.36
2018-08-30T06:35:06.501Z,98696.88
2018-08-30T06:37:34.827Z,98698.52
2018-08-30T06:40:03.227Z,98701.59
2018-08-30T06:42:31.499Z,98707.66
2018-08-30T06:44:59.860Z,98707.82
2018-08-30T06:47:28.117Z,98707.14
2018-08-30T06:49:56.475Z,98718.42
2018-08-30T06:52:24.870Z,98725.48
2018-08-30T06:54:53.214Z,98725.30
2018-08-30T06:57:21.528Z,98725.30
2018-08-30T06:59:49.852Z,98729.84
2018-08-30T07:02:18.144Z,98729.67
2018-08-30T07:04:46.688Z,98737.06
2018-08-30T07:07:15.004Z,98735.72
2018-08-30T07:09:43.384Z,98730.81
2018-08-30T07:12:11.923Z,98744.92
2018-08-30T07:14:40.297Z,98745.44
2018-08-30T07:17:08.694Z,98750.86
2018-08-30T07:19:36.963Z,98759.91
2018-08-30T07:22:05.327Z,98758.94
2018-08-30T07:24:33.649Z,98767.69
2018-08-30T07:27:01.974Z,98770.66
2018-08-30T07:29:30.250Z,98772.39
2018-08-30T07:31:58.583Z,98777.61
2018-08-30T07:34:26.973Z,98771.87
2018-08-30T07:36:55.195Z,98782.45
2018-08-30T07:39:23.478Z,98783.64
2018-08-30T07:41:51.808Z,98790.88
2018-08-30T07:44:20.289Z,98802.31
2018-08-30T07:46:50.999Z,98795.94
2018-08-30T07:49:19.713Z,98799.45
2018-08-30T07:51:48.081Z,98792.56
2018-08-30T07:54:16.498Z,98809.70
2018-08-30T07:56:44.855Z,98814.58
2018-08-30T07:59:13.316Z,98809.72
2018-08-30T08:01:41.747Z,98813.73
2018-08-30T08:04:10.053Z,98822.66
2018-08-30T08:06:38.367Z,98821.45
2018-08-30T08:09:08.270Z,98842.63
2018-08-30T08:11:36.574Z,98834.55
2018-08-30T08:14:04.957Z,98840.98
2018-08-30T08:16:33.302Z,98848.22
2018-08-30T08:19:01.666Z,98846.70
2018-08-30T08:21:29.914Z,98848.03
2018-08-30T08:23:58.265Z,98846.45
2018-08-30T08:26:26.562Z,98845.33
2018-08-30T08:28:54.881Z,98850.18
2018-08-30T08:31:23.241Z,98858.92
2018-08-30T08:33:51.746Z,98865.70
2018-08-30T08:36:20.088Z,98867.88
2018-08-30T08:38:48.658Z,98867.90
2018-08-30T08:41:16.946Z,98872.10
2018-08-30T08:43:45.250Z,98876.61
2018-08-30T08:46:13.537Z,98879.30
2018-08-30T08:48:41.867Z,98881.32
2018-08-30T08:51:10.191Z,98889.41
2018-08-30T08:53:38.523Z,98884.36
2018-08-30T08:56:06.869Z,98884.52
2018-08-30T08:58:35.151Z,98885.72
2018-08-30T09:01:03.495Z,98887.05
2018-08-30T09:03:31.842Z,98886.20
2018-08-30T09:06:00.157Z,98891.09
2018-08-30T09:08:28.486Z,98887.72
2018-08-30T09:10:57.080Z,98886.56
2018-08-30T09:13:25.430Z,98896.14
2018-08-30T09:15:53.717Z,98899.50
2018-08-30T09:18:22.171Z,98904.89
2018-08-30T09:20:50.723Z,98910.11
2018-08-30T09:23:19.063Z,98920.87
2018-08-30T09:25:47.317Z,98915.64
2018-08-30T09:28:15.604Z,98912.94
2018-08-30T09:30:44.053Z,98918.00
2018-08-30T09:33:12.477Z,98918.00
2018-08-30T09:35:40.857Z,98917.79
2018-08-30T09:38:09.219Z,98910.56
2018-08-30T09:40:37.718Z,98928.56
2018-08-30T09:43:07.092Z,98917.13
2018-08-30T09:45:36.006Z,98916.30
2018-08-30T09:48:05.774Z,98927.85
2018-08-30T09:50:35.501Z,98920.43
2018-08-30T09:53:04.456Z,98921.21
2018-08-30T09:55:33.002Z,98927.59
2018-08-30T09:58:01.264Z,98927.30
2018-08-30T10:00:34.914Z,98926.55
2018-08-30T10:03:03.205Z,98935.39
2018-08-30T10:05:31.507Z,98933.83
2018-08-30T10:07:59.953Z,98925.08
2018-08-30T10:10:28.244Z,98930.02
2018-08-30T10:12:56.912Z,98935.51
2018-08-30T10:15:25.482Z,98934.31
2018-08-30T10:17:53.877Z,98927.91
2018-08-30T10:20:22.197Z,98936.77
2018-08-30T10:22:50.462Z,98925.73
2018-08-30T10:25:18.839Z,98929.36
2018-08-30T10:27:47.169Z,98935.48
2018-08-30T10:30:15.437Z,98938.30
2018-08-30T10:32:44.210Z,98937.52
2018-08-30T10:35:12.613Z,98940.12
2018-08-30T10:37:40.969Z,98937.19
2018-08-30T10:40:09.444Z,98951.61
2018-08-30T10:42:37.733Z,98942.85
2018-08-30T10:45:06.104Z,98935.56
2018-08-30T10:47:41.089Z,98957.00
2018-08-30T10:50:09.457Z,98961.56
2018-08-30T10:52:38.020Z,98958.29
2018-08-30T10:55:06.437Z,98957.89
2018-08-30T10:57:34.725Z,98956.73
2018-08-30T11:00:02.976Z,98966.36
2018-08-30T11:02:31.264Z,98961.77
2018-08-30T11:04:59.709Z,98961.14
2018-08-30T11:07:28.303Z,98957.06
2018-08-30T11:10:03.007Z,98961.03
2018-08-30T11:12:31.514Z,98950.31
2018-08-30T11:15:00.083Z,98959.38
2018-08-30T11:17:29.071Z,98953.08
2018-08-30T11:19:57.384Z,98950.59
2018-08-30T11:22:25.771Z,98958.76
2018-08-30T11:24:54.249Z,98959.67
2018-08-30T11:27:22.670Z,98956.47
2018-08-30T11:29:51.610Z,98960.14
2018-08-30T11:32:19.911Z,98949.22
2018-08-30T11:34:48.603Z,98960.29
2018-08-30T11:37:16.909Z,98962.60
2018-08-30T11:39:45.228Z,98965.29
2018-08-30T11:42:13.507Z,98967.78
2018-08-30T11:44:41.871Z,98972.95
2018-08-30T11:47:10.198Z,98968.20
2018-08-30T11:49:38.548Z,98972.59
2018-08-30T11:52:09.979Z,98978.64
2018-08-30T11:54:39.245Z,98976.23
2018-08-30T11:57:08.341Z,98984.68
2018-08-30T11:59:36.594Z,98978.50
2018-08-30T12:02:04.954Z,98984.12
2018-08-30T12:04:33.351Z,98984.12
2018-08-30T12:07:01.909Z,98982.37
2018-08-30T12:09:30.321Z,98983.06
2018-08-30T12:12:01.903Z,98993.78
2018-08-30T12:14:30.233Z,98992.10
2018-08-30T12:16:58.587Z,98999.91
2018-08-30T12:19:26.976Z,98994.69
2018-08-30T12:21:55.353Z,98997.18
2018-08-30T12:24:23.658Z,98987.95
2018-08-30T12:26:53.482Z,98986.81
2018-08-30T12:29:21.932Z,98989.75
2018-08-30T12:31:50.286Z,98988.20
2018-08-30T12:34:18.718Z,98990.02
2018-08-30T12:36:47.229Z,98989.98
2018-08-30T12:39:15.595Z,98990.89
2018-08-30T12:41:43.942Z,98988.87
2018-08-30T12:44:12.196Z,98978.05
2018-08-30T12:46:40.476Z,98984.08
2018-08-30T12:49:08.784Z,98983.70
2018-08-30T12:51:37.311Z,98986.53
2018-08-30T12:54:05.445Z,98985.51
2018-08-30T12:56:33.737Z,98997.30
2018-08-30T12:59:07.348Z,98984.85
2018-08-30T13:01:35.906Z,98987.06
2018-08-30T13:04:04.449Z,98980.11
2018-08-30T13:07:35.495Z,98968.58
2018-08-30T13:10:04.076Z,98980.75
2018-08-30T13:12:32.509Z,98984.52
2018-08-30T13:15:00.935Z,98986.23
2018-08-30T13:17:29.205Z,98972.20
2018-08-30T13:19:57.469Z,98983.53
2018-08-30T13:22:26.117Z,98986.38
2018-08-30T13:24:54.467Z,98994.22
2018-08-30T13:27:22.973Z,98994.09
2018-08-30T13:29:51.394Z,98984.14
2018-08-30T13:32:19.879Z,98994.35
2018-08-30T13:34:54.873Z,98980.04
2018-08-30T13:37:23.340Z,98983.59
2018-08-30T13:39:51.567Z,98986.19
2018-08-30T13:42:20.086Z,98996.03
2018-08-30T13:44:48.404Z,98994.91
2018-08-30T13:50:07.257Z,98986.42
2018-08-30T13:52:35.693Z,98997.92
2018-08-30T13:55:04.127Z,99003.02
2018-08-30T13:57:33.502Z,98998.88
2018-08-30T14:00:02.033Z,99013.34
2018-08-30T14:02:30.024Z,99000.18
2018-08-30T14:04:58.663Z,98996.91
2018-08-30T14:07:27.073Z,99015.55
2018-08-30T14:09:55.524Z,99005.70
2018-08-30T14:12:24.032Z,99006.31
2018-08-30T14:14:52.357Z,99001.43
2018-08-30T14:17:21.468Z,99007.62
2018-08-30T14:19:50.191Z,99006.95
2018-08-30T14:22:18.565Z,99008.95
2018-08-30T14:24:46.896Z,98993.34
2018-08-30T14:27:15.322Z,98997.01
2018-08-30T14:29:43.557Z,98995.53
2018-08-30T14:32:11.809Z,99002.17
2018-08-30T14:34:40.070Z,99002.14
2018-08-30T14:37:08.839Z,99009.66
2018-08-30T14:39:37.129Z,99006.58
2018-08-30T14:42:05.765Z,99013.98
2018-08-30T14:44:34.891Z,99021.68
2018-08-30T14:47:03.253Z,99003.92
2018-08-30T14:49:31.589Z,99033.16
2018-08-30T14:51:59.884Z,99017.59
2018-08-30T14:54:28.261Z,99011.51
2018-08-30T14:56:57.145Z,99011.03
2018-08-30T14:59:25.902Z,99016.19
2018-08-30T15:01:54.214Z,99028.45
2018-08-30T15:04:22.503Z,99028.05
2018-08-30T15:06:50.848Z,99026.88
2018-08-30T15:09:19.171Z,99025.66
2018-08-30T15:11:47.437Z,99029.30
2018-08-30T15:14:16.138Z,99037.84
2018-08-30T15:16:44.429Z,99036.03
2018-08-30T15:19:13.034Z,99046.35
2018-08-30T15:21:41.549Z,99041.86
2018-08-30T15:24:09.956Z,99049.89
2018-08-30T15:26:38.962Z,99045.25
2018-08-30T15:29:07.651Z,99048.63
2018-08-30T15:31:36.165Z,99051.58
2018-08-30T15:34:04.622Z,99047.19
2018-08-30T15:36:34.566Z,99057.36
2018-08-30T15:39:03.183Z,99071.75
2018-08-30T15:41:32.144Z,99057.38
2018-08-30T15:44:00.429Z,99057.05
2018-08-30T15:46:28.876Z,99068.80
2018-08-30T15:48:57.282Z,99074.46
2018-08-30T15:51:25.550Z,99076.98
2018-08-30T15:53:54.209Z,99071.83
2018-08-30T15:56:22.462Z,99082.68
2018-08-30T15:58:51.027Z,99082.59
2018-08-30T16:01:19.410Z,99079.43
2018-08-30T16:03:47.789Z,99083.09
2018-08-30T16:06:16.236Z,99082.02
2018-08-30T16:08:44.758Z,99079.36
2018-08-30T16:11:13.323Z,99089.34
2018-08-30T16:13:41.891Z,99080.72
2018-08-30T16:16:11.022Z,99084.53
2018-08-30T16:18:39.524Z,99090.39
2018-08-30T16:21:07.904Z,99080.97
2018-08-30T16:23:37.263Z,99088.94
2018-08-30T16:26:05.835Z,99076.25
2018-08-30T16:28:34.983Z,99085.16
2018-08-30T16:31:03.382Z,99083.17
2018-08-30T16:33:31.686Z,99085.77
2018-08-30T16:36:00.009Z,99088.15
2018-08-30T16:38:28.335Z,99092.05
2018-08-30T16:40:56.635Z,99089.59
2018-08-30T16:43:25.009Z,99100.18
2018-08-30T16:45:53.323Z,99094.40
2018-08-30T16:48:21.714Z,99089.97
2018-08-30T16:50:50.047Z,99100.55
2018-08-30T16:53:18.499Z,99105.92
2018-08-30T16:55:46.786Z,99108.25
2018-08-30T16:58:15.109Z,99117.25
2018-08-30T17:00:43.430Z,99117.12
2018-08-30T17:03:11.763Z,99115.56
2018-08-30T17:05:40.057Z,99115.94
2018-08-30T17:08:08.371Z,99120.64
2018-08-30T17:10:36.744Z,99124.42
2018-08-30T17:13:05.082Z,99122.09
2018-08-30T17:15:33.408Z,99135.39
2018-08-30T17:18:01.764Z,99130.16
2018-08-30T17:20:37.111Z,99128.12
2018-08-30T17:23:05.817Z,99134.14
2018-08-30T17:25:34.204Z,99135.81
2018-08-30T17:28:02.582Z,99140.71
2018-08-30T17:30:30.884Z,99131.11
2018-08-30T17:32:59.388Z,99137.26
2018-08-30T17:35:28.014Z,99127.14
2018-08-30T17:37:56.565Z,99131.53
2018-08-30T17:40:25.175Z,99143.68
2018-08-30T17:42:53.535Z,99139.98
2018-08-30T17:45:22.489Z,99150.50
2018-08-30T17:47:50.713Z,99149.27
2018-08-30T17:50:19.436Z,99153.45
2018-08-30T17:52:47.747Z,99155.20
2018-08-30T17:55:16.128Z,99157.09
2018-08-30T17:57:48.469Z,99159.11
2018-08-30T18:00:16.909Z,99163.50
2018-08-30T18:02:46.194Z,99165.84
2018-08-30T18:05:15.114Z,99172.59
2018-08-30T18:07:43.764Z,99175.11
2018-08-30T18:10:12.123Z,99178.33
2018-08-30T18:12:40.737Z,99177.80
2018-08-30T18:15:10.926Z,99183.86
2018-08-30T18:17:39.255Z,99190.59
2018-08-30T18:20:10.160Z,99195.48
2018-08-30T18:22:38.594Z,99199.86
2018-08-30T18:25:07.418Z,99203.23
2018-08-30T18:27:35.862Z,99203.19
2018-08-30T18:30:04.320Z,99201.50
2018-08-30T18:32:32.695Z,99204.83
2018-08-30T18:35:01.035Z,99207.22
2018-08-30T18:37:29.378Z,99219.61
2018-08-30T18:39:57.778Z,99224.32
2018-08-30T18:42:26.120Z,99227.34
2018-08-30T18:44:54.534Z,99232.01
2018-08-30T18:47:22.889Z,99231.89
2018-08-30T18:49:51.276Z,99226.00
2018-08-30T18:52:19.588Z,99230.87
2018-08-30T18:54:47.942Z,99233.06
2018-08-30T18:57:16.334Z,99227.01
2018-08-30T18:59:44.674Z,99230.63
2018-08-30T19:02:13.067Z,99237.99
2018-08-30T19:04:41.764Z,99237.11
2018-08-30T19:07:10.473Z,99248.05
2018-08-30T19:09:38.786Z,99240.98
2018-08-30T19:12:07.565Z,99248.80
2018-08-30T19:14:37.082Z,99249.22
2018-08-30T19:17:11.167Z,99253.27
2018-08-30T19:19:39.441Z,99259.75
2018-08-30T19:22:07.881Z,99255.71
2018-08-30T19:24:41.730Z,99260.66
2018-08-30T19:27:10.062Z,99265.04
2018-08-30T19:29:43.892Z,99267.39
2018-08-30T19:32:12.564Z,99273.13
2018-08-30T19:34:40.939Z,99281.46
2018-08-30T19:37:09.322Z,99291.28
2018-08-30T19:39:37.652Z,99289.28
2018-08-30T19:42:06.914Z,99285.21
2018-08-30T19:44:35.395Z,99291.66
2018-08-30T19:47:04.004Z,99294.34
2018-08-30T19:49:32.350Z,99300.20
2018-08-30T19:52:00.895Z,99298.66
2018-08-30T19:54:29.204Z,99297.00
2018-08-30T19:56:57.902Z,99308.58
2018-08-30T19:59:26.587Z,99307.72
2018-08-30T20:01:55.255Z,99304.76
2018-08-30T20:04:23.836Z,99305.41
2018-08-30T20:06:53.135Z,99305.97
2018-08-30T20:09:21.787Z,99291.30
2018-08-30T20:11:50.664Z,99302.48
2018-08-30T20:14:19.367Z,99311.27
2018-08-30T20:16:48.120Z,99309.30
2018-08-30T20:19:16.454Z,99304.02
2018-08-30T20:21:45.939Z,99312.77
2018-08-30T20:24:14.629Z,99308.85
2018-08-30T20:26:42.947Z,99307.78
2018-08-30T20:29:11.372Z,99307.39
2018-08-30T20:31:40.029Z,99309.81
2018-08-30T20:34:08.766Z,99310.38
2018-08-30T20:36:37.179Z,99315.83
2018-08-30T20:39:06.269Z,99314.59
2018-08-30T20:41:34.662Z,99305.89
2018-08-30T20:44:03.123Z,99314.16
2018-08-30T20:46:31.516Z,99317.86
2018-08-30T20:48:59.874Z,99317.66
2018-08-30T20:51:28.187Z,99314.02
2018-08-30T20:53:56.499Z,99319.84
2018-08-30T20:56:24.922Z,99322.20
2018-08-30T20:58:53.418Z,99322.24
2018-08-30T21:01:21.711Z,99328.62
2018-08-30T21:03:50.079Z,99326.23
2018-08-30T21:06:18.387Z,99327.23
2018-08-30T21:08:46.724Z,99333.45
2018-08-30T21:11:15.118Z,99333.02
2018-08-30T21:13:43.544Z,99326.58
2018-08-30T21:16:11.962Z,99331.61
2018-08-30T21:18:40.274Z,99337.27
2018-08-30T21:21:08.739Z,99331.33
2018-08-30T21:23:37.178Z,99333.88
2018-08-30T21:26:05.942Z,99325.54
2018-08-30T21:28:34.277Z,99320.81
2018-08-30T21:31:02.585Z,99326.86
2018-08-30T21:33:30.859Z,99322.02
2018-08-30T21:35:59.234Z,99322.27
2018-08-30T21:38:27.669Z,99318.78
2018-08-30T21:40:55.994Z,99322.37
2018-08-30T21:43:24.475Z,99319.48
2018-08-30T21:45:52.958Z,99322.80
2018-08-30T21:48:21.276Z,99326.41
2018-08-30T21:50:49.642Z,99326.02
2018-08-30T21:53:17.961Z,99329.48
2018-08-30T21:55:46.293Z,99328.81
2018-08-30T21:58:14.625Z,99334.12
2018-08-30T22:00:42.981Z,99339.53
2018-08-30T22:03:11.269Z,99328.20
2018-08-30T22:05:39.569Z,99331.28
2018-08-30T22:08:07.850Z,99332.63
2018-08-30T22:10:36.225Z,99336.00
2018-08-30T22:13:04.585Z,99334.31
2018-08-30T22:15:32.905Z,99339.02
2018-08-30T22:18:01.253Z,99329.34
2018-08-30T22:20:29.563Z,99329.79
2018-08-30T22:22:57.890Z,99328.59
2018-08-30T22:25:26.214Z,99330.94
2018-08-30T22:27:54.593Z,99328.55
2018-08-30T22:30:22.902Z,99328.22
2018-08-30T22:32:51.283Z,99321.70
2018-08-30T22:35:19.605Z,99324.27
2018-08-30T22:37:47.876Z,99325.11
2018-08-30T22:40:16.237Z,99320.36
2018-08-30T22:42:44.578Z,99323.18
2018-08-30T22:45:12.929Z,99319.95
2018-08-30T22:47:41.245Z,99319.75
2018-08-30T22:50:09.839Z,99318.62
2018-08-30T22:52:38.265Z,99319.81
2018-08-30T22:55:06.596Z,99325.59
2018-08-30T22:57:34.925Z,99323.16
2018-08-30T23:00:03.328Z,99318.64
2018-08-30T23:02:31.696Z,99322.96
2018-08-30T23:05:00.057Z,99325.20
2018-08-30T23:07:28.439Z,99324.66
2018-08-30T23:09:56.849Z,99327.73
2018-08-30T23:12:25.102Z,99322.77
2018-08-30T23:14:53.498Z,99320.84
2018-08-30T23:17:21.769Z,99327.48
2018-08-30T23:19:50.150Z,99325.24
2018-08-30T23:22:18.545Z,99328.16
2018-08-30T23:24:46.830Z,99327.66
2018-08-30T23:27:15.285Z,99327.52
2018-08-30T23:29:43.576Z,99329.14
2018-08-30T23:32:11.892Z,99322.70
2018-08-30T23:34:40.188Z,99318.10
2018-08-30T23:37:08.617Z,99326.03
2018-08-30T23:39:37.035Z,99325.81
2018-08-30T23:42:05.555Z,99328.59
2018-08-30T23:44:33.974Z,99330.56
2018-08-30T23:47:02.263Z,99330.19
2018-08-30T23:49:30.557Z,99337.73
2018-08-30T23:51:58.860Z,99331.19
2018-08-30T23:54:27.312Z,99328.30
2018-08-30T23:56:55.711Z,99328.09
2018-08-30T23:59:35.389Z,99332.46
